Time;durP1;ratioP1;P1;durP2;ratioP2;P2;SDS_P1;SDS_P2;PMS_P1;PMS_P2;Temp;Humidity;BMP_temperature;BMP_pressure;BME280_temperature;BME280_humidity;BME280_pressure;Samples;Min_cycle;Max_cycle;Signal;HPM_P1;HPM_P2
2022/11/23 00:00:41;;;;;;;0.00;0.00;;;;;;;6.59;81.42;97342.38;4976525;28;20226;-58
2022/11/23 00:03:14;;;;;;;0.10;0.10;;;;;;;6.56;82.40;97323.75;4959222;28;20813;-59
2022/11/23 00:05:41;;;;;;;0.00;0.00;;;;;;;6.53;82.87;97329.25;4954278;28;20248;-58
2022/11/23 00:08:07;;;;;;;0.00;0.00;;;;;;;6.60;81.93;97328.44;4958726;28;20248;-58
2022/11/23 00:10:34;;;;;;;0.00;0.00;;;;;;;6.50;82.51;97331.16;4946414;28;21103;-58
2022/11/23 00:13:00;;;;;;;0.00;0.00;;;;;;;6.48;82.05;97327.09;4948625;28;20242;-59
2022/11/23 00:15:27;;;;;;;0.00;0.00;;;;;;;6.47;82.58;97321.13;4956375;28;20231;-58
2022/11/23 00:17:55;;;;;;;0.00;0.00;;;;;;;6.34;83.35;97318.16;4956008;28;20261;-58
2022/11/23 00:20:21;;;;;;;0.00;0.00;;;;;;;6.35;82.51;97320.59;4961522;28;20236;-59
2022/11/23 00:22:48;;;;;;;0.00;0.00;;;;;;;6.27;82.61;97310.19;4958150;28;20237;-59
2022/11/23 00:25:16;;;;;;;0.00;0.00;;;;;;;6.17;82.70;97312.91;4961342;28;20229;-58
2022/11/23 00:27:43;;;;;;;0.10;0.10;;;;;;;6.13;83.21;97315.97;4953406;28;20807;-59
2022/11/23 00:30:11;;;;;;;0.00;0.00;;;;;;;6.04;83.68;97317.69;4959484;28;20710;-59
2022/11/23 00:32:37;;;;;;;0.00;0.00;;;;;;;5.97;84.51;97322.66;4960867;28;20292;-59
2022/11/23 00:35:08;;;;;;;0.03;0.03;;;;;;;5.90;85.26;97324.22;4947874;28;20914;-59
2022/11/23 00:37:35;;;;;;;0.00;0.00;;;;;;;5.85;86.04;97326.47;4954104;28;20237;-58
2022/11/23 00:40:02;;;;;;;0.10;0.10;;;;;;;5.89;83.32;97326.00;4955544;28;20261;-59
2022/11/23 00:42:28;;;;;;;0.10;0.10;;;;;;;5.81;85.00;97319.97;4960842;28;20241;-58
2022/11/23 00:44:55;;;;;;;0.00;0.00;;;;;;;5.82;84.89;97321.59;4957961;28;20241;-58
2022/11/23 00:47:21;;;;;;;0.00;0.00;;;;;;;5.80;84.69;97324.34;4961349;28;20233;-58
2022/11/23 00:49:48;;;;;;;0.10;0.10;;;;;;;5.74;85.67;97324.94;4958351;28;20241;-59
2022/11/23 00:52:18;;;;;;;0.10;0.10;;;;;;;5.74;84.81;97328.34;4951660;28;20241;-60
2022/11/23 00:54:45;;;;;;;0.00;0.00;;;;;;;5.75;85.92;97324.00;4960054;28;20253;-59
2022/11/23 00:57:12;;;;;;;0.00;0.00;;;;;;;5.67;86.27;97322.16;4956404;28;20340;-58
2022/11/23 00:59:38;;;;;;;0.00;0.00;;;;;;;5.64;86.30;97327.63;4965368;28;20317;-58
2022/11/23 01:02:05;;;;;;;0.00;0.00;;;;;;;5.63;86.52;97328.59;4946105;28;20242;-60
2022/11/23 01:04:31;;;;;;;0.00;0.00;;;;;;;5.63;86.12;97328.59;4962864;28;20232;-58
2022/11/23 01:06:59;;;;;;;0.00;0.00;;;;;;;5.63;86.15;97325.19;4959760;28;20234;-58
2022/11/23 01:09:29;;;;;;;0.00;0.00;;;;;;;5.67;85.79;97329.13;4960800;28;20242;-57
2022/11/23 01:11:55;;;;;;;0.00;0.00;;;;;;;5.61;86.93;97331.34;4960341;28;20237;-57
2022/11/23 01:14:24;;;;;;;0.00;0.00;;;;;;;5.55;86.28;97326.75;4980961;28;20234;-57
2022/11/23 01:16:51;;;;;;;0.00;0.00;;;;;;;5.50;87.25;97323.81;4961861;28;20233;-58
2022/11/23 01:19:19;;;;;;;0.00;0.00;;;;;;;5.53;85.96;97333.03;4962266;28;20234;-59
2022/11/23 01:21:49;;;;;;;0.00;0.00;;;;;;;5.46;86.12;97328.47;4960729;28;20226;-57
2022/11/23 01:24:21;;;;;;;0.00;0.00;;;;;;;5.37;87.38;97328.56;4964710;28;20686;-58
2022/11/23 01:26:52;;;;;;;0.00;0.00;;;;;;;5.32;88.24;97326.41;4964375;28;20241;-58
2022/11/23 01:29:20;;;;;;;0.00;0.00;;;;;;;5.30;88.31;97328.38;4965528;28;20227;-57
2022/11/23 01:31:46;;;;;;;0.00;0.00;;;;;;;5.27;90.09;97331.25;4964557;28;20229;-57
2022/11/23 01:34:14;;;;;;;0.00;0.00;;;;;;;5.31;89.40;97332.53;4962593;28;20226;-57
2022/11/23 01:36:41;;;;;;;0.00;0.00;;;;;;;5.36;88.26;97340.69;4966327;28;20217;-57
2022/11/23 01:39:08;;;;;;;0.10;0.10;;;;;;;5.38;88.70;97336.16;4959945;28;20233;-58
2022/11/23 01:41:38;;;;;;;0.00;0.00;;;;;;;5.43;88.72;97346.09;4957281;28;20233;-58
2022/11/23 01:44:28;;;;;;;0.10;0.10;;;;;;;5.55;87.31;97338.88;4950807;28;20336;-58
2022/11/23 01:46:57;;;;;;;0.00;0.00;;;;;;;5.69;86.76;97347.91;4969213;28;20905;-58
2022/11/23 01:49:25;;;;;;;0.00;0.00;;;;;;;5.77;86.23;97358.31;4949792;28;20233;-58
2022/11/23 01:51:55;;;;;;;0.00;0.00;;;;;;;5.91;85.48;97354.34;4964050;28;20234;-58
2022/11/23 01:54:26;;;;;;;0.00;0.00;;;;;;;5.93;85.65;97349.81;4965547;28;20729;-58
2022/11/23 01:56:57;;;;;;;0.03;0.03;;;;;;;6.11;84.17;97351.56;4962031;28;20230;-57
2022/11/23 01:59:25;;;;;;;0.00;0.00;;;;;;;6.02;85.32;97348.13;4980418;28;20229;-58
2022/11/23 02:01:53;;;;;;;0.00;0.00;;;;;;;6.06;85.25;97346.84;4958336;28;20277;-58
2022/11/23 02:04:24;;;;;;;0.00;0.00;;;;;;;6.13;85.02;97354.81;4956556;28;20241;-57
2022/11/23 02:06:51;;;;;;;0.10;0.10;;;;;;;6.20;84.24;97358.44;4962875;28;20237;-57
2022/11/23 02:09:21;;;;;;;0.00;0.00;;;;;;;6.19;84.33;97355.00;4969397;28;20915;-58
2022/11/23 02:11:48;;;;;;;0.00;0.00;;;;;;;6.28;84.94;97352.47;4965740;28;20706;-57
2022/11/23 02:14:15;;;;;;;0.00;0.00;;;;;;;6.30;84.00;97356.53;4973290;28;20587;-58
2022/11/23 02:16:42;;;;;;;0.00;0.00;;;;;;;6.39;83.52;97361.72;4969110;28;20233;-58
2022/11/23 02:19:19;;;;;;;0.00;0.00;;;;;;;6.39;83.75;97357.38;4967178;28;20675;-58
2022/11/23 02:21:46;;;;;;;0.10;0.10;;;;;;;6.42;83.93;97359.66;4969158;28;20259;-58
2022/11/23 02:24:20;;;;;;;0.00;0.00;;;;;;;6.42;84.21;97364.00;4962529;28;20230;-59
2022/11/23 02:26:48;;;;;;;0.00;0.00;;;;;;;6.43;84.15;97355.28;4961912;28;20222;-58
2022/11/23 02:29:20;;;;;;;0.00;0.00;;;;;;;6.52;83.07;97367.28;4983189;28;20234;-59
2022/11/23 02:31:47;;;;;;;0.00;0.00;;;;;;;6.55;81.98;97361.00;4968903;28;20713;-58
2022/11/23 02:34:14;;;;;;;0.03;0.03;;;;;;;6.61;81.38;97357.78;4968583;28;20292;-58
2022/11/23 02:36:42;;;;;;;0.10;0.10;;;;;;;6.63;81.12;97359.25;4969340;28;20229;-59
2022/11/23 02:39:12;;;;;;;0.00;0.00;;;;;;;6.64;81.00;97365.25;4968973;28;20575;-59
2022/11/23 02:41:42;;;;;;;0.00;0.00;;;;;;;6.60;82.90;97358.75;4964516;28;20231;-58
2022/11/23 02:44:23;;;;;;;0.00;0.00;;;;;;;6.57;82.17;97356.47;4978343;28;20786;-59
2022/11/23 02:46:51;;;;;;;0.00;0.00;;;;;;;6.53;82.76;97355.97;4958964;28;20230;-58
2022/11/23 02:49:17;;;;;;;0.00;0.00;;;;;;;6.53;83.41;97344.78;4962698;28;20613;-57
2022/11/23 02:51:44;;;;;;;0.10;0.10;;;;;;;6.51;82.57;97347.53;4968851;28;20233;-59
2022/11/23 02:54:11;;;;;;;0.00;0.00;;;;;;;6.48;83.32;97345.25;4965515;28;20326;-59
2022/11/23 02:56:38;;;;;;;0.10;0.10;;;;;;;6.47;83.86;97341.03;4967777;28;20714;-59
2022/11/23 02:59:04;;;;;;;0.07;0.07;;;;;;;6.52;82.59;97346.56;4981238;28;20309;-58
2022/11/23 03:01:32;;;;;;;0.00;0.00;;;;;;;6.55;81.93;97335.88;4960954;28;20317;-59
2022/11/23 03:03:59;;;;;;;0.00;0.00;;;;;;;6.55;82.31;97329.91;4961993;28;20317;-58
2022/11/23 03:06:28;;;;;;;0.00;0.00;;;;;;;6.53;82.22;97335.22;4970354;28;20958;-59
2022/11/23 03:08:56;;;;;;;0.00;0.00;;;;;;;6.50;82.65;97336.34;4959134;28;20238;-58
2022/11/23 03:11:22;;;;;;;0.07;0.07;;;;;;;6.42;83.29;97325.13;4983359;28;20618;-59
2022/11/23 03:13:50;;;;;;;0.03;0.03;;;;;;;6.35;82.68;97327.53;4967815;28;20241;-58
2022/11/23 03:16:20;;;;;;;0.00;0.00;;;;;;;6.25;83.27;97330.28;4971327;28;20236;-59
2022/11/23 03:18:49;;;;;;;0.00;0.00;;;;;;;6.14;83.50;97331.34;4967124;28;20307;-59
2022/11/23 03:21:17;;;;;;;0.00;0.00;;;;;;;6.04;85.45;97335.81;4966464;28;20275;-59
2022/11/23 03:23:44;;;;;;;0.10;0.10;;;;;;;5.92;84.63;97335.25;4964055;28;20605;-60
2022/11/23 03:26:12;;;;;;;0.00;0.00;;;;;;;5.79;85.76;97329.66;4961688;28;20737;-59
2022/11/23 03:28:46;;;;;;;0.00;0.00;;;;;;;5.68;86.69;97334.13;4971041;28;20234;-58
2022/11/23 03:31:14;;;;;;;0.00;0.00;;;;;;;5.59;87.11;97332.44;4964907;28;20247;-59
2022/11/23 03:33:41;;;;;;;0.00;0.00;;;;;;;5.58;86.87;97330.81;4963895;28;20242;-59
2022/11/23 03:36:09;;;;;;;0.00;0.00;;;;;;;5.51;86.87;97325.44;4972232;28;20258;-59
2022/11/23 03:38:45;;;;;;;0.00;0.00;;;;;;;5.56;87.35;97322.38;4963844;28;20239;-59
2022/11/23 03:41:25;;;;;;;0.10;0.10;;;;;;;5.52;87.90;97316.72;4962951;28;20292;-59
2022/11/23 03:43:53;;;;;;;0.10;0.10;;;;;;;5.50;86.81;97316.06;4949395;28;20631;-58
2022/11/23 03:46:20;;;;;;;0.00;0.00;;;;;;;5.48;87.35;97320.56;4957832;28;20859;-58
2022/11/23 03:48:46;;;;;;;0.00;0.00;;;;;;;5.47;87.42;97314.56;4978083;28;20233;-58
2022/11/23 03:51:14;;;;;;;0.10;0.10;;;;;;;5.46;87.16;97323.28;4966561;28;20236;-58
2022/11/23 03:53:41;;;;;;;0.00;0.00;;;;;;;5.46;87.46;97327.66;4968651;28;20362;-58
2022/11/23 03:56:08;;;;;;;0.00;0.00;;;;;;;5.45;87.51;97316.50;4963775;28;20253;-58
2022/11/23 03:58:39;;;;;;;0.10;0.10;;;;;;;5.49;88.77;97322.19;4967885;28;20224;-58
2022/11/23 04:01:09;;;;;;;0.10;0.10;;;;;;;5.63;87.34;97313.06;4964173;28;20288;-58
2022/11/23 04:03:37;;;;;;;0.10;0.10;;;;;;;5.76;86.09;97312.66;4964874;28;20668;-58
2022/11/23 04:06:16;;;;;;;0.00;0.00;;;;;;;6.06;83.39;97313.16;4963466;28;20831;-58
2022/11/23 04:08:56;;;;;;;0.00;0.00;;;;;;;6.11;83.00;97315.31;4953235;28;20522;-59
2022/11/23 04:11:36;;;;;;;0.00;0.00;;;;;;;6.19;81.67;97299.81;4962810;28;20230;-58
2022/11/23 04:14:02;;;;;;;0.00;0.00;;;;;;;6.23;81.93;97301.13;4960964;28;20241;-58
2022/11/23 04:16:29;;;;;;;0.00;0.00;;;;;;;6.25;81.65;97298.34;4968204;28;20244;-59
2022/11/23 04:18:56;;;;;;;0.00;0.00;;;;;;;6.27;82.50;97301.59;4962138;28;20234;-58
2022/11/23 04:21:24;;;;;;;0.00;0.00;;;;;;;6.32;80.91;97301.94;4964550;28;20330;-58
2022/11/23 04:23:50;;;;;;;0.00;0.00;;;;;;;6.24;81.36;97305.31;4976959;28;20514;-58
2022/11/23 04:26:17;;;;;;;0.10;0.10;;;;;;;6.18;81.70;97303.34;4962277;28;20590;-58
2022/11/23 04:28:46;;;;;;;0.00;0.00;;;;;;;6.06;82.58;97300.22;4962744;28;20332;-59
2022/11/23 04:31:13;;;;;;;0.00;0.00;;;;;;;5.94;83.03;97297.06;5163896;23;20234;-59
2022/11/23 04:33:50;;;;;;;0.10;0.10;;;;;;;5.88;83.89;97295.09;4981157;28;20263;-60
2022/11/23 04:36:19;;;;;;;0.00;0.00;;;;;;;5.75;84.69;97295.50;4981627;28;20265;-59
2022/11/23 04:38:47;;;;;;;0.10;0.10;;;;;;;5.58;84.88;97292.00;4982197;28;20910;-59
2022/11/23 04:41:17;;;;;;;0.00;0.00;;;;;;;5.50;85.23;97294.53;4953378;28;20236;-59
2022/11/23 04:43:44;;;;;;;0.10;0.10;;;;;;;5.43;85.81;97302.09;4955152;28;20236;-58
2022/11/23 04:46:11;;;;;;;0.00;0.00;;;;;;;5.32;86.98;97303.13;4932019;28;20241;-59
2022/11/23 04:48:38;;;;;;;0.00;0.00;;;;;;;5.30;86.98;97298.13;4957330;28;20634;-58
2022/11/23 04:51:06;;;;;;;0.00;0.00;;;;;;;5.19;88.26;97302.72;4953456;28;20578;-60
2022/11/23 04:53:37;;;;;;;0.00;0.00;;;;;;;5.06;89.28;97309.06;4977145;28;20241;-58
2022/11/23 04:56:06;;;;;;;0.00;0.00;;;;;;;4.90;90.57;97299.38;4962426;28;20235;-58
2022/11/23 04:58:37;;;;;;;0.00;0.00;;;;;;;4.73;91.00;97298.41;4957876;28;20312;-58
2022/11/23 05:01:04;;;;;;;0.00;0.00;;;;;;;4.62;91.87;97296.03;4964623;28;20229;-58
2022/11/23 05:03:34;;;;;;;0.00;0.00;;;;;;;4.57;92.27;97292.13;4981182;28;20234;-59
2022/11/23 05:06:06;;;;;;;0.00;0.00;;;;;;;4.48;93.15;97298.16;4968423;28;20666;-58
2022/11/23 05:08:39;;;;;;;0.00;0.00;;;;;;;4.43;93.73;97295.19;4964458;28;20269;-58
2022/11/23 05:11:28;;;;;;;0.00;0.00;;;;;;;4.29;94.65;97297.31;4978572;28;20586;-58
2022/11/23 05:13:58;;;;;;;0.00;0.00;;;;;;;4.21;95.49;97299.00;4961020;28;20226;-59
2022/11/23 05:16:24;;;;;;;0.00;0.00;;;;;;;4.09;96.90;97299.19;4951505;28;20261;-58
2022/11/23 05:18:51;;;;;;;0.00;0.00;;;;;;;4.06;96.63;97302.03;4961911;28;20233;-59
2022/11/23 05:21:18;;;;;;;0.10;0.10;;;;;;;4.03;96.94;97297.16;4957630;28;20237;-59
2022/11/23 05:23:45;;;;;;;0.03;0.03;;;;;;;4.06;96.74;97301.25;4957214;28;20239;-59
2022/11/23 05:26:11;;;;;;;0.00;0.00;;;;;;;4.06;97.11;97296.06;4932091;28;20691;-59
2022/11/23 05:28:39;;;;;;;0.00;0.00;;;;;;;4.05;97.40;97300.41;4957149;28;20226;-63
2022/11/23 05:31:07;;;;;;;0.10;0.10;;;;;;;3.99;96.77;97304.38;4961656;28;20710;-57
2022/11/23 05:33:33;;;;;;;0.00;0.00;;;;;;;3.96;97.35;97303.84;4956047;28;20706;-59
2022/11/23 05:36:02;;;;;;;0.00;0.00;;;;;;;3.89;98.35;97295.88;4961492;28;20242;-59
2022/11/23 05:38:36;;;;;;;0.00;0.00;;;;;;;3.82;99.82;97300.75;4964727;28;20800;-58
2022/11/23 05:41:07;;;;;;;0.00;0.00;;;;;;;3.74;100.00;97302.44;4951678;28;20284;-59
2022/11/23 05:43:34;;;;;;;0.00;0.00;;;;;;;3.65;100.00;97311.84;4963932;28;20272;-59
2022/11/23 05:46:02;;;;;;;0.00;0.00;;;;;;;3.54;100.00;97300.72;4961327;28;20230;-59
2022/11/23 05:48:32;;;;;;;0.00;0.00;;;;;;;3.53;100.00;97299.09;4964361;28;20562;-58
2022/11/23 05:50:59;;;;;;;0.00;0.00;;;;;;;3.46;100.00;97300.59;4960724;28;20237;-59
2022/11/23 05:53:31;;;;;;;0.00;0.00;;;;;;;3.43;100.00;97307.78;4964475;28;20225;-58
2022/11/23 05:56:17;;;;;;;0.00;0.00;;;;;;;3.43;100.00;97311.19;4963429;28;20240;-58
2022/11/23 05:58:56;;;;;;;0.00;0.00;;;;;;;3.35;100.00;97314.44;4963097;28;21164;-59
2022/11/23 06:01:24;;;;;;;0.07;0.07;;;;;;;3.29;100.00;97309.81;4964373;28;20726;-58
2022/11/23 06:03:53;;;;;;;0.10;0.10;;;;;;;3.23;100.00;97312.94;4961435;28;20233;-57
2022/11/23 06:06:20;;;;;;;0.00;0.00;;;;;;;3.21;100.00;97310.53;4964362;28;20292;-59
2022/11/23 06:08:46;;;;;;;0.10;0.10;;;;;;;3.15;100.00;97305.91;4966391;28;20307;-58
2022/11/23 06:11:15;;;;;;;0.00;0.00;;;;;;;3.18;100.00;97299.69;4958431;28;20313;-58
2022/11/23 06:13:42;;;;;;;0.00;0.00;;;;;;;3.09;100.00;97307.28;4942802;28;20234;-58
2022/11/23 06:16:09;;;;;;;0.00;0.00;;;;;;;3.01;100.00;97312.31;4945401;28;20665;-58
2022/11/23 06:18:47;;;;;;;0.00;0.00;;;;;;;3.02;100.00;97306.19;4964339;28;20241;-58
2022/11/23 06:21:15;;;;;;;0.00;0.00;;;;;;;3.14;100.00;97306.06;4961943;28;20241;-58
2022/11/23 06:23:42;;;;;;;0.00;0.00;;;;;;;3.19;100.00;97309.03;4955138;28;20240;-58
2022/11/23 06:26:09;;;;;;;0.00;0.00;;;;;;;3.20;100.00;97313.22;4975339;28;20237;-58
2022/11/23 06:28:35;;;;;;;0.00;0.00;;;;;;;3.24;100.00;97305.09;4980384;28;20227;-58
2022/11/23 06:31:04;;;;;;;0.00;0.00;;;;;;;3.29;100.00;97306.44;4960203;28;20233;-58
2022/11/23 06:33:32;;;;;;;0.00;0.00;;;;;;;3.33;100.00;97305.22;4982138;28;20597;-58
2022/11/23 06:36:02;;;;;;;0.00;0.00;;;;;;;3.34;100.00;97296.53;4977528;28;20712;-58
2022/11/23 06:38:37;;;;;;;0.00;0.00;;;;;;;3.44;100.00;97302.50;4965106;28;20229;-57
2022/11/23 06:41:11;;;;;;;0.00;0.00;;;;;;;3.47;100.00;97298.81;4958066;28;20237;-56
2022/11/23 06:43:39;;;;;;;0.00;0.00;;;;;;;3.47;100.00;97304.81;4952261;28;20244;-57
2022/11/23 06:46:07;;;;;;;0.00;0.00;;;;;;;3.44;100.00;97312.81;4960303;28;20307;-57
2022/11/23 06:48:38;;;;;;;0.00;0.00;;;;;;;3.38;100.00;97310.78;4963887;28;20280;-57
2022/11/23 06:51:07;;;;;;;0.00;0.00;;;;;;;3.40;100.00;97309.69;4960858;28;20234;-59
2022/11/23 06:53:36;;;;;;;0.00;0.00;;;;;;;3.39;100.00;97315.00;4963500;28;20229;-58
2022/11/23 06:56:07;;;;;;;0.07;0.07;;;;;;;3.26;100.00;97307.53;4963220;28;20241;-58
2022/11/23 06:58:34;;;;;;;0.00;0.00;;;;;;;3.19;100.00;97309.03;4963474;28;20230;-58
2022/11/23 07:01:05;;;;;;;0.00;0.00;;;;;;;3.09;100.00;97322.75;4962916;28;20265;-59
2022/11/23 07:03:38;;;;;;;0.00;0.00;;;;;;;3.05;100.00;97321.41;4967170;28;20237;-57
2022/11/23 07:06:16;;;;;;;0.00;0.00;;;;;;;2.99;100.00;97331.41;4965125;28;20630;-58
2022/11/23 07:08:44;;;;;;;0.00;0.00;;;;;;;2.91;100.00;97330.31;4966389;28;20241;-57
2022/11/23 07:11:28;;;;;;;0.00;0.00;;;;;;;2.92;100.00;97334.53;4964600;28;20256;-57
2022/11/23 07:13:55;;;;;;;0.00;0.00;;;;;;;2.92;100.00;97338.88;4979150;28;20265;-57
2022/11/23 07:16:25;;;;;;;0.00;0.00;;;;;;;2.91;100.00;97334.69;4960555;28;20241;-57
2022/11/23 07:18:51;;;;;;;0.07;0.07;;;;;;;2.97;100.00;97333.31;4955405;28;20244;-58
2022/11/23 07:21:19;;;;;;;0.00;0.00;;;;;;;3.05;100.00;97336.88;4959312;28;20245;-57
2022/11/23 07:23:46;;;;;;;0.03;0.03;;;;;;;3.12;100.00;97333.75;4983153;28;20711;-57
2022/11/23 07:26:13;;;;;;;0.00;0.00;;;;;;;3.21;100.00;97340.63;4964433;28;20230;-57
2022/11/23 07:28:39;;;;;;;0.00;0.00;;;;;;;3.24;100.00;97341.19;4966471;28;20276;-57
2022/11/23 07:31:07;;;;;;;0.00;0.00;;;;;;;3.32;100.00;97342.28;4964048;28;20230;-57
2022/11/23 07:33:34;;;;;;;0.00;0.00;;;;;;;3.33;100.00;97349.06;4963886;28;20321;-57
2022/11/23 07:36:01;;;;;;;0.00;0.00;;;;;;;3.45;100.00;97344.56;4962197;28;20232;-58
2022/11/23 07:38:32;;;;;;;0.00;0.00;;;;;;;3.49;100.00;97343.34;4959866;28;20336;-57
2022/11/23 07:41:02;;;;;;;0.00;0.00;;;;;;;3.54;100.00;97343.75;4963775;28;20729;-57
2022/11/23 07:43:48;;;;;;;0.00;0.00;;;;;;;3.64;100.00;97347.13;4968695;28;20240;-58
2022/11/23 07:46:14;;;;;;;0.00;0.00;;;;;;;3.65;100.00;97347.97;4954163;28;20245;-57
2022/11/23 07:48:41;;;;;;;0.00;0.00;;;;;;;3.67;100.00;97351.22;4948647;28;20305;-57
2022/11/23 07:51:08;;;;;;;0.00;0.00;;;;;;;3.67;100.00;97348.63;4954233;28;20384;-57
2022/11/23 07:53:36;;;;;;;0.10;0.10;;;;;;;3.68;100.00;97348.50;4967898;28;20218;-57
2022/11/23 07:56:02;;;;;;;0.10;0.10;;;;;;;3.68;100.00;97335.59;4955495;28;20293;-58
2022/11/23 07:58:31;;;;;;;0.00;0.00;;;;;;;3.62;100.00;97348.25;4960360;28;20240;-58
2022/11/23 08:01:04;;;;;;;0.07;0.07;;;;;;;3.57;100.00;97346.06;4964929;28;20322;-57
2022/11/23 08:03:31;;;;;;;0.00;0.00;;;;;;;3.52;100.00;97343.91;4967239;28;20226;-57
2022/11/23 08:05:58;;;;;;;0.00;0.00;;;;;;;3.52;100.00;97348.22;4964749;28;20278;-58
2022/11/23 08:08:24;;;;;;;0.00;0.00;;;;;;;3.50;100.00;97345.81;4967708;28;20292;-57
2022/11/23 08:10:52;;;;;;;0.10;0.10;;;;;;;3.59;100.00;97343.34;4964825;28;20718;-58
2022/11/23 08:13:19;;;;;;;0.10;0.10;;;;;;;3.63;100.00;97326.66;4967031;28;20230;-57
2022/11/23 08:15:45;;;;;;;0.00;0.00;;;;;;;3.77;100.00;97333.13;4967508;28;20263;-57
2022/11/23 08:18:12;;;;;;;0.10;0.10;;;;;;;3.85;100.00;97330.66;4956977;28;20231;-57
2022/11/23 08:20:39;;;;;;;0.00;0.00;;;;;;;3.94;100.00;97332.41;4978594;28;20249;-57
2022/11/23 08:23:05;;;;;;;0.00;0.00;;;;;;;4.02;100.00;97339.44;4961716;28;20228;-58
2022/11/23 08:25:32;;;;;;;0.00;0.00;;;;;;;4.05;100.00;97333.19;4967542;28;20229;-57
2022/11/23 08:28:01;;;;;;;0.10;0.10;;;;;;;4.09;100.00;97331.94;4964519;28;20244;-56
2022/11/23 08:30:29;;;;;;;0.00;0.00;;;;;;;4.09;100.00;97340.50;4966748;28;20225;-57
2022/11/23 08:32:56;;;;;;;0.00;0.00;;;;;;;4.09;100.00;97330.16;4963010;28;20248;-62
2022/11/23 08:35:22;;;;;;;0.00;0.00;;;;;;;4.12;100.00;97334.25;4959691;28;20299;-58
2022/11/23 08:37:49;;;;;;;0.00;0.00;;;;;;;4.13;100.00;97339.25;4946165;28;20235;-58
2022/11/23 08:40:16;;;;;;;0.00;0.00;;;;;;;4.14;100.00;97334.91;4951492;28;20229;-58
2022/11/23 08:42:42;;;;;;;0.10;0.10;;;;;;;4.16;100.00;97330.44;4967264;28;20225;-58
2022/11/23 08:45:11;;;;;;;0.00;0.00;;;;;;;4.19;99.61;97324.97;4963779;28;20242;-57
2022/11/23 08:47:37;;;;;;;0.00;0.00;;;;;;;4.23;98.73;97326.31;4966660;28;20237;-58
2022/11/23 08:50:05;;;;;;;0.00;0.00;;;;;;;4.29;99.16;97335.25;4955947;28;20222;-58
2022/11/23 08:52:31;;;;;;;0.03;0.03;;;;;;;4.40;99.24;97329.91;4960883;28;20918;-57
2022/11/23 08:54:58;;;;;;;0.07;0.07;;;;;;;4.47;99.49;97331.91;4944417;28;20230;-58
2022/11/23 08:57:24;;;;;;;0.10;0.10;;;;;;;4.54;98.90;97332.97;4946455;28;20242;-58
2022/11/23 08:59:51;;;;;;;0.00;0.00;;;;;;;4.64;98.44;97332.91;4960399;28;20700;-57
2022/11/23 09:02:19;;;;;;;0.03;0.03;;;;;;;4.70;97.47;97334.91;4965409;28;20241;-57
2022/11/23 09:04:46;;;;;;;0.00;0.00;;;;;;;4.76;97.19;97338.69;4965862;28;20238;-57
2022/11/23 09:07:13;;;;;;;0.00;0.00;;;;;;;4.80;93.75;97333.06;4964054;28;20292;-57
2022/11/23 09:09:40;;;;;;;0.00;0.00;;;;;;;4.85;95.44;97325.69;4966630;28;20237;-58
2022/11/23 09:12:07;;;;;;;0.00;0.00;;;;;;;4.92;94.10;97330.28;4944836;28;20726;-57
2022/11/23 09:14:34;;;;;;;0.00;0.00;;;;;;;5.02;94.07;97328.44;4947169;28;20239;-57
2022/11/23 09:17:01;;;;;;;0.00;0.00;;;;;;;5.13;94.32;97327.41;4943818;28;20277;-57
2022/11/23 09:19:29;;;;;;;0.10;0.10;;;;;;;5.18;93.83;97327.75;4951964;28;20217;-58
2022/11/23 09:21:56;;;;;;;0.00;0.00;;;;;;;5.27;93.14;97326.06;4963022;28;20726;-60
2022/11/23 09:24:24;;;;;;;0.07;0.07;;;;;;;5.38;92.40;97336.16;4964657;28;20240;-60
2022/11/23 09:26:51;;;;;;;0.00;0.00;;;;;;;5.44;91.42;97339.94;4963077;28;20232;-60
2022/11/23 09:29:17;;;;;;;0.10;0.10;;;;;;;5.45;92.06;97332.00;4966000;28;20579;-60
2022/11/23 09:31:44;;;;;;;0.00;0.00;;;;;;;5.50;92.76;97338.50;4964076;28;20320;-60
2022/11/23 09:34:12;;;;;;;0.00;0.00;;;;;;;5.55;91.59;97346.66;4946464;28;20724;-60
2022/11/23 09:36:40;;;;;;;0.00;0.00;;;;;;;5.59;92.48;97347.97;4965609;28;20313;-61
2022/11/23 09:39:07;;;;;;;0.00;0.00;;;;;;;5.67;91.78;97348.03;4962896;28;20598;-60
2022/11/23 09:41:52;;;;;;;0.10;0.10;;;;;;;5.70;91.80;97345.13;4960216;28;20357;-60
2022/11/23 09:44:24;;;;;;;0.00;0.00;;;;;;;5.76;90.08;97336.78;4955621;28;20674;-60
2022/11/23 09:47:08;;;;;;;0.00;0.00;;;;;;;5.82;89.96;97331.94;4963405;28;20237;-60
2022/11/23 09:49:44;;;;;;;0.00;0.00;;;;;;;5.87;90.02;97346.03;4964075;28;20689;-60
2022/11/23 09:52:16;;;;;;;0.00;0.00;;;;;;;5.91;90.31;97349.16;4961413;28;20248;-60
2022/11/23 09:54:45;;;;;;;0.00;0.00;;;;;;;5.97;89.96;97345.13;4964157;28;20234;-60
2022/11/23 09:57:19;;;;;;;0.00;0.00;;;;;;;6.03;88.72;97344.56;4963310;28;20241;-60
2022/11/23 09:59:54;;;;;;;0.00;0.00;;;;;;;6.10;89.64;97342.97;4965953;28;20242;-60
2022/11/23 10:02:23;;;;;;;0.00;0.00;;;;;;;6.19;89.03;97346.44;4961694;28;20288;-61
2022/11/23 10:04:51;;;;;;;0.00;0.00;;;;;;;6.28;88.35;97342.91;4962498;28;20245;-59
2022/11/23 10:07:39;;;;;;;0.00;0.00;;;;;;;6.40;85.00;97348.63;4964916;28;20240;-59
2022/11/23 10:10:16;;;;;;;0.00;0.00;;;;;;;6.53;87.32;97331.81;4962816;28;20233;-59
2022/11/23 10:12:51;;;;;;;0.00;0.00;;;;;;;6.62;88.06;97328.28;4957476;28;20257;-59
2022/11/23 10:15:24;;;;;;;0.00;0.00;;;;;;;6.70;87.78;97336.09;4951453;28;20261;-58
2022/11/23 10:18:03;;;;;;;0.00;0.00;;;;;;;6.76;87.79;97335.47;4943080;28;20591;-59
2022/11/23 10:20:44;;;;;;;0.00;0.00;;;;;;;6.84;86.50;97336.47;4946973;28;20694;-59
2022/11/23 10:23:22;;;;;;;0.00;0.00;;;;;;;6.92;86.00;97326.91;4961937;28;20245;-59
2022/11/23 10:25:51;;;;;;;0.00;0.00;;;;;;;6.99;86.38;97324.47;4962657;28;20248;-58
2022/11/23 10:28:20;;;;;;;0.00;0.00;;;;;;;7.07;86.75;97328.88;4964141;28;20725;-59
2022/11/23 10:30:53;;;;;;;0.00;0.00;;;;;;;7.13;86.37;97327.41;4969226;28;20556;-59
2022/11/23 10:33:29;;;;;;;0.07;0.07;;;;;;;7.15;82.24;97318.50;4966421;28;20819;-59
2022/11/23 10:35:56;;;;;;;0.00;0.00;;;;;;;7.32;83.01;97313.31;4965869;28;20252;-59
2022/11/23 10:38:27;;;;;;;0.00;0.00;;;;;;;7.31;83.47;97315.09;4969286;28;20235;-59
2022/11/23 10:41:02;;;;;;;0.00;0.00;;;;;;;7.37;82.14;97311.84;4966580;28;20233;-59
2022/11/23 10:43:36;;;;;;;0.00;0.00;;;;;;;7.45;80.69;97307.63;4968863;28;20567;-58
2022/11/23 10:46:22;;;;;;;0.00;0.00;;;;;;;7.63;75.48;97308.25;4966823;28;20221;-59
2022/11/23 10:48:51;;;;;;;0.00;0.00;;;;;;;7.78;76.95;97303.19;4965574;28;20719;-58
2022/11/23 10:51:23;;;;;;;0.00;0.00;;;;;;;7.81;78.94;97304.66;4969030;28;20236;-59
2022/11/23 10:53:58;;;;;;;0.00;0.00;;;;;;;7.91;79.06;97304.47;4964893;28;20237;-59
2022/11/23 10:56:25;;;;;;;0.00;0.00;;;;;;;7.96;78.33;97304.78;4968318;28;20241;-59
2022/11/23 10:58:52;;;;;;;0.00;0.00;;;;;;;7.97;79.76;97296.00;4966051;28;20241;-59
2022/11/23 11:01:23;;;;;;;0.00;0.00;;;;;;;7.93;80.44;97298.13;4968971;28;20583;-59
2022/11/23 11:03:50;;;;;;;0.00;0.00;;;;;;;7.94;79.92;97284.16;4966022;28;20715;-59
2022/11/23 11:06:24;;;;;;;0.00;0.00;;;;;;;7.94;80.24;97283.34;4968871;28;20733;-59
2022/11/23 11:08:55;;;;;;;0.00;0.00;;;;;;;7.93;79.62;97284.31;4965759;28;20753;-58
2022/11/23 11:11:25;;;;;;;0.00;0.00;;;;;;;7.95;79.99;97283.16;4968112;28;20242;-59
2022/11/23 11:14:02;;;;;;;0.00;0.00;;;;;;;8.04;79.35;97285.72;4965612;28;20234;-59
2022/11/23 11:16:30;;;;;;;0.00;0.00;;;;;;;8.09;78.57;97279.06;4968639;28;20250;-58
2022/11/23 11:18:57;;;;;;;0.00;0.00;;;;;;;8.15;78.16;97281.97;4966194;28;20234;-59
2022/11/23 11:21:31;;;;;;;0.00;0.00;;;;;;;8.17;78.68;97273.03;4967499;28;20648;-59
2022/11/23 11:24:02;;;;;;;0.00;0.00;;;;;;;8.18;79.41;97268.66;4965242;28;20244;-60
2022/11/23 11:26:30;;;;;;;0.00;0.00;;;;;;;8.14;80.59;97270.75;4967987;28;20226;-59
2022/11/23 11:29:00;;;;;;;0.00;0.00;;;;;;;8.23;77.71;97264.53;4965101;28;20226;-58
2022/11/23 11:31:52;;;;;;;0.00;0.00;;;;;;;8.32;76.89;97267.13;4967471;28;20246;-58
2022/11/23 11:34:25;;;;;;;0.00;0.00;;;;;;;8.34;78.22;97271.19;4965709;28;20240;-60
2022/11/23 11:36:59;;;;;;;0.00;0.00;;;;;;;8.40;76.46;97265.31;4965474;28;20235;-59
2022/11/23 11:39:35;;;;;;;0.10;0.10;;;;;;;8.33;78.89;97263.53;4966508;28;20232;-59
2022/11/23 11:42:07;;;;;;;0.00;0.00;;;;;;;8.40;77.60;97256.66;4963991;28;20280;-60
2022/11/23 11:44:40;;;;;;;0.00;0.00;;;;;;;8.40;78.01;97257.50;4960175;28;20296;-58
2022/11/23 11:47:16;;;;;;;0.00;0.00;;;;;;;8.50;77.63;97257.31;4952724;28;20350;-59
2022/11/23 11:49:46;;;;;;;0.00;0.00;;;;;;;8.44;77.65;97257.94;4967988;28;20230;-59